This is the latest recevied weather packets stored in our database for station/object CA3EAP-13. If no packets are shown the sender has not sent any weather packets the latest 10 day(s).
| Time | Temp. | Humidity | Pressure | Rain* | Wind** | Luminosity | Snow |
|---|---|---|---|---|---|---|---|
| 1777999505 | 23.89° C | 28% | 1008.8 hPa | - | - | - | - |
| 1777998905 | 23.33° C | 29% | 1009.1 hPa | - | - | - | - |
| 1777998305 | 23.33° C | 28% | 1009 hPa | - | - | - | - |
| 1777997705 | 22.78° C | 30% | 1009.1 hPa | - | - | - | - |
| 1777997105 | 22.22° C | 30% | 1009.5 hPa | - | - | - | - |
| 1777996505 | 22.78° C | 31% | 1009.4 hPa | - | - | - | - |
| 1777995905 | 22.78° C | 30% | 1009.4 hPa | - | - | - | - |
| 1777995305 | 22.22° C | 31% | 1009.7 hPa | - | - | - | - |
| 1777994705 | 22.22° C | 30% | 1009.8 hPa | - | - | - | - |
| 1777994105 | 22.22° C | 31% | 1010.2 hPa | - | - | - | - |
| 1777993505 | 21.67° C | 32% | 1010.5 hPa | - | - | - | - |
| 1777992905 | 21.11° C | 32% | 1010.8 hPa | - | - | - | - |
| 1777992305 | 21.11° C | 33% | 1010.9 hPa | - | - | - | - |
| 1777991705 | 20.56° C | 33% | 1011 hPa | - | - | - | - |
| 1777991105 | 20.56° C | 34% | 1010.9 hPa | - | - | - | - |
| 1777990505 | 20.56° C | 34% | 1011 hPa | - | - | - | - |
| 1777989905 | 20° C | 36% | 1011.2 hPa | - | - | - | - |
| 1777989305 | 20° C | 36% | 1011.4 hPa | - | - | - | - |
| 1777988705 | 20° C | 36% | 1011.6 hPa | - | - | - | - |
| 1777988105 | 20° C | 36% | 1011.9 hPa | - | - | - | - |
| 1777987505 | 19.44° C | 38% | 1012.2 hPa | - | - | - | - |
| 1777986905 | 18.89° C | 39% | 1012.4 hPa | - | - | - | - |
| 1777986305 | 18.89° C | 39% | 1012.4 hPa | - | - | - | - |
| 1777985705 | 19.44° C | 39% | 1012.4 hPa | - | - | - | - |
| 1777985105 | 18.89° C | 38% | 1012.5 hPa | - | - | - | - |
* Rain since midnight (hover to see other rain measurements)
** Current wind speed in m/s (hover to see current wind gust speed)